YXZ weather

Wawa Airport
Wawa, Ontario, Canada

Public forecast

Using degrees Celsius for public forecast. Weather courtesy of forecast.io.

METAR (pilot weather report)

Retrieved 2019/04/19 17:00 UTC (55 minutes ago):

CYXZ 191700Z 01006KT 300V090 15SM FEW035 08/M04 A2995 RMK CU1 CU TR SLP154

TAF (pilot weather forecast)

Retrieved 2019/04/19 13:00 UTC (5 hours ago):

TAF CYXZ 191238Z 1913/1924 04005KT P6SM FEW160 BECMG 1913/1915 VRB03KT RMK NXT FCST BY 192000Z